Time;durP1;ratioP1;P1;durP2;ratioP2;P2;SDS_P1;SDS_P2;PMS_P1;PMS_P2;Temp;Humidity;BMP_temperature;BMP_pressure;BME280_temperature;BME280_humidity;BME280_pressure;Samples;Min_cycle;Max_cycle;Signal;HPM_P1;HPM_P2
2023/06/25 00:01:02;;;;;;;5.10;4.68;;;;;;;;;;6234929;28;20300;-69
2023/06/25 00:04:07;;;;;;;4.88;4.38;;;;;;;;;;6234933;28;20296;-69
2023/06/25 00:07:12;;;;;;;5.30;4.55;;;;;;;;;;6235957;28;20425;-71
2023/06/25 00:10:16;;;;;;;7.13;5.05;;;;;;;;;;6235312;28;20300;-70
2023/06/25 00:13:23;;;;;;;5.43;4.32;;;;;;;;;;6235245;28;20245;-71
2023/06/25 00:16:29;;;;;;;4.80;4.50;;;;;;;;;;6235147;28;20296;-70
2023/06/25 00:19:33;;;;;;;6.88;4.68;;;;;;;;;;6234800;28;20300;-71
2023/06/25 00:22:38;;;;;;;4.30;3.90;;;;;;;;;;6235646;28;20513;-69
2023/06/25 00:25:42;;;;;;;4.80;4.45;;;;;;;;;;6234799;28;20300;-70
2023/06/25 00:28:50;;;;;;;4.20;3.95;;;;;;;;;;6238667;28;20240;-69
2023/06/25 00:31:54;;;;;;;6.32;4.00;;;;;;;;;;6237836;28;20272;-70
2023/06/25 00:35:00;;;;;;;4.10;3.78;;;;;;;;;;6221931;28;20305;-70
2023/06/25 00:38:04;;;;;;;3.75;3.50;;;;;;;;;;6254304;28;20292;-70
2023/06/25 00:41:10;;;;;;;3.78;3.67;;;;;;;;;;6238121;28;20296;-69
2023/06/25 00:44:16;;;;;;;3.83;3.67;;;;;;;;;;6237807;28;20292;-69
2023/06/25 00:47:22;;;;;;;4.10;3.83;;;;;;;;;;6238330;28;20281;-70
2023/06/25 00:50:27;;;;;;;4.10;3.78;;;;;;;;;;6239404;28;20296;-69
2023/06/25 00:53:35;;;;;;;3.78;3.67;;;;;;;;;;6239400;28;20248;-70
2023/06/25 00:56:40;;;;;;;3.55;3.40;;;;;;;;;;6239451;28;20564;-69
2023/06/25 00:59:48;;;;;;;5.15;3.85;;;;;;;;;;6237857;28;20301;-69
2023/06/25 01:03:03;;;;;;;4.18;3.92;;;;;;;;;;6238995;28;20349;-69
2023/06/25 01:06:14;;;;;;;3.85;3.65;;;;;;;;;;6238511;28;20296;-70
2023/06/25 01:09:19;;;;;;;4.13;3.83;;;;;;;;;;6238912;28;20291;-69
2023/06/25 01:12:24;;;;;;;3.42;3.30;;;;;;;;;;6239007;28;20293;-70
2023/06/25 01:15:30;;;;;;;3.92;3.78;;;;;;;;;;6238342;28;20296;-70
2023/06/25 01:18:39;;;;;;;4.05;3.60;;;;;;;;;;6238617;28;20548;-69
2023/06/25 01:21:52;;;;;;;3.97;3.75;;;;;;;;;;6238790;28;20233;-69
2023/06/25 01:24:58;;;;;;;3.90;3.50;;;;;;;;;;6238798;28;20331;-70
2023/06/25 01:28:03;;;;;;;3.53;3.40;;;;;;;;;;6254067;28;20273;-70
2023/06/25 01:31:08;;;;;;;3.78;3.47;;;;;;;;;;6238501;28;20296;-69
2023/06/25 01:34:13;;;;;;;3.83;3.63;;;;;;;;;;6238120;28;20302;-69
2023/06/25 01:37:17;;;;;;;6.32;3.63;;;;;;;;;;6238131;28;20252;-69
2023/06/25 01:40:24;;;;;;;3.72;3.60;;;;;;;;;;6236589;28;20288;-70
2023/06/25 01:43:30;;;;;;;4.32;3.70;;;;;;;;;;6238534;28;20244;-70
2023/06/25 01:46:35;;;;;;;3.53;3.33;;;;;;;;;;6239271;28;20249;-69
2023/06/25 01:49:39;;;;;;;4.35;4.05;;;;;;;;;;6236040;28;20291;-69
2023/06/25 01:52:44;;;;;;;4.25;3.85;;;;;;;;;;6253298;28;20264;-69
2023/06/25 01:55:52;;;;;;;4.05;3.90;;;;;;;;;;6237759;28;20593;-73
2023/06/25 01:58:57;;;;;;;4.55;4.15;;;;;;;;;;6235786;28;20533;-68
2023/06/25 02:02:02;;;;;;;4.10;3.60;;;;;;;;;;6227599;28;20273;-68
2023/06/25 02:05:07;;;;;;;5.22;3.78;;;;;;;;;;6236477;28;20604;-70
2023/06/25 02:08:12;;;;;;;4.03;3.83;;;;;;;;;;6237195;28;20494;-70
2023/06/25 02:11:18;;;;;;;3.85;3.65;;;;;;;;;;6236913;28;20300;-70
2023/06/25 02:14:23;;;;;;;3.80;3.60;;;;;;;;;;6234695;28;20316;-69
2023/06/25 02:17:27;;;;;;;4.10;3.90;;;;;;;;;;6235185;28;20288;-69
2023/06/25 02:20:32;;;;;;;4.90;3.53;;;;;;;;;;6234861;28;20441;-70
2023/06/25 02:23:37;;;;;;;4.22;3.88;;;;;;;;;;6236216;28;20374;-70
2023/06/25 02:26:43;;;;;;;4.00;3.70;;;;;;;;;;6234990;28;20564;-70
2023/06/25 02:29:47;;;;;;;4.40;3.90;;;;;;;;;;6236378;28;20297;-69
2023/06/25 02:32:52;;;;;;;3.70;3.60;;;;;;;;;;6219593;28;20439;-69
2023/06/25 02:35:56;;;;;;;3.55;3.45;;;;;;;;;;6236033;28;20296;-70
2023/06/25 02:39:01;;;;;;;4.57;4.10;;;;;;;;;;6219122;28;20296;-69
2023/06/25 02:42:08;;;;;;;10.30;4.18;;;;;;;;;;6236239;28;20233;-69
2023/06/25 02:45:12;;;;;;;4.53;3.92;;;;;;;;;;6235718;28;20300;-68
2023/06/25 02:48:17;;;;;;;3.80;3.60;;;;;;;;;;6234664;28;20549;-70
2023/06/25 02:51:21;;;;;;;4.32;4.07;;;;;;;;;;6234435;28;20292;-70
2023/06/25 02:54:26;;;;;;;3.72;3.60;;;;;;;;;;6249883;28;20597;-69
2023/06/25 02:57:32;;;;;;;3.63;3.50;;;;;;;;;;6235834;28;20272;-70
2023/06/25 03:00:37;;;;;;;4.05;3.67;;;;;;;;;;6230867;28;20305;-69
2023/06/25 03:03:41;;;;;;;4.05;3.85;;;;;;;;;;6202587;28;20326;-69
2023/06/25 03:06:46;;;;;;;4.28;4.05;;;;;;;;;;6235500;28;20245;-70
2023/06/25 03:09:50;;;;;;;4.22;4.03;;;;;;;;;;6235318;28;20557;-69
2023/06/25 03:12:58;;;;;;;3.95;3.80;;;;;;;;;;6233802;28;20296;-69
2023/06/25 03:16:03;;;;;;;3.88;3.67;;;;;;;;;;6233351;28;20276;-70
2023/06/25 03:19:09;;;;;;;3.45;3.35;;;;;;;;;;6233294;28;20296;-70
2023/06/25 03:22:14;;;;;;;3.35;3.22;;;;;;;;;;6233763;28;20545;-70
2023/06/25 03:25:21;;;;;;;3.78;3.55;;;;;;;;;;6217062;28;20294;-70
2023/06/25 03:28:35;;;;;;;3.05;2.95;;;;;;;;;;6216641;28;20300;-69
2023/06/25 03:31:41;;;;;;;3.63;3.33;;;;;;;;;;6217248;28;20264;-71
2023/06/25 03:34:48;;;;;;;4.32;3.53;;;;;;;;;;6216649;28;20300;-69
2023/06/25 03:37:52;;;;;;;3.83;3.47;;;;;;;;;;6216432;28;20297;-70
2023/06/25 03:40:57;;;;;;;5.95;3.50;;;;;;;;;;6218192;28;20278;-69
2023/06/25 03:44:03;;;;;;;6.90;3.75;;;;;;;;;;6233110;28;20292;-69
2023/06/25 03:47:09;;;;;;;3.75;3.55;;;;;;;;;;6232999;28;20320;-70
2023/06/25 03:50:14;;;;;;;3.58;3.15;;;;;;;;;;6232848;28;20552;-70
2023/06/25 03:53:19;;;;;;;3.97;3.53;;;;;;;;;;6216347;28;20299;-69
2023/06/25 03:56:24;;;;;;;3.63;3.42;;;;;;;;;;6233258;28;20272;-69
2023/06/25 03:59:31;;;;;;;3.83;3.63;;;;;;;;;;6232713;28;20296;-70
2023/06/25 04:02:36;;;;;;;4.07;3.45;;;;;;;;;;6235235;28;20276;-70
2023/06/25 04:05:41;;;;;;;3.55;3.35;;;;;;;;;;6239460;28;20443;-69
2023/06/25 04:08:45;;;;;;;4.30;4.00;;;;;;;;;;6239126;28;20608;-69
2023/06/25 04:11:50;;;;;;;6.10;3.50;;;;;;;;;;6221879;28;20272;-69
2023/06/25 04:14:56;;;;;;;3.80;3.50;;;;;;;;;;6237900;28;20284;-70
2023/06/25 04:18:00;;;;;;;3.42;3.22;;;;;;;;;;6238959;28;20373;-69
2023/06/25 04:21:07;;;;;;;2.85;2.63;;;;;;;;;;6239513;28;20233;-70
2023/06/25 04:24:11;;;;;;;2.95;2.85;;;;;;;;;;6238716;28;20309;-72
2023/06/25 04:27:16;;;;;;;3.20;3.00;;;;;;;;;;6239667;28;20309;-70
2023/06/25 04:30:22;;;;;;;2.90;2.80;;;;;;;;;;6220882;28;20293;-69
2023/06/25 04:33:28;;;;;;;2.72;2.50;;;;;;;;;;6236883;28;20292;-69
2023/06/25 04:36:32;;;;;;;3.30;3.20;;;;;;;;;;6238808;28;20245;-70
2023/06/25 04:39:40;;;;;;;3.53;3.22;;;;;;;;;;6237137;28;20309;-69
2023/06/25 04:42:45;;;;;;;3.05;2.85;;;;;;;;;;6237389;28;20280;-69
2023/06/25 04:45:50;;;;;;;2.88;2.70;;;;;;;;;;6239181;28;20241;-71
2023/06/25 04:48:55;;;;;;;3.17;2.97;;;;;;;;;;6220615;28;20300;-70
2023/06/25 04:52:02;;;;;;;2.72;2.63;;;;;;;;;;6220885;28;20530;-69
2023/06/25 04:55:08;;;;;;;2.63;2.50;;;;;;;;;;6238286;28;20304;-68
2023/06/25 04:58:12;;;;;;;2.60;2.55;;;;;;;;;;6238323;28;20304;-70
2023/06/25 05:01:18;;;;;;;2.60;2.50;;;;;;;;;;6239290;28;20246;-70
2023/06/25 05:04:23;;;;;;;2.67;2.58;;;;;;;;;;6237879;28;20363;-70
2023/06/25 05:07:27;;;;;;;2.75;2.55;;;;;;;;;;6238501;28;20244;-69
2023/06/25 05:10:32;;;;;;;2.63;2.42;;;;;;;;;;6237612;28;20276;-69
2023/06/25 05:13:37;;;;;;;2.70;2.70;;;;;;;;;;6236313;28;20307;-70
2023/06/25 05:16:42;;;;;;;2.60;2.50;;;;;;;;;;6238014;28;20239;-70
2023/06/25 05:19:47;;;;;;;2.72;2.70;;;;;;;;;;6237592;28;20300;-69
2023/06/25 05:22:51;;;;;;;3.70;2.40;;;;;;;;;;6219640;28;20308;-71
2023/06/25 05:25:56;;;;;;;2.80;2.70;;;;;;;;;;6237885;28;20245;-70
2023/06/25 05:29:01;;;;;;;2.50;2.47;;;;;;;;;;6237556;28;20480;-70
2023/06/25 05:32:08;;;;;;;2.90;2.58;;;;;;;;;;6237600;28;20501;-70
2023/06/25 05:35:12;;;;;;;2.42;2.33;;;;;;;;;;6237134;28;20584;-69
2023/06/25 05:38:17;;;;;;;2.60;2.60;;;;;;;;;;6237367;28;20292;-69
2023/06/25 05:41:22;;;;;;;4.47;2.50;;;;;;;;;;6235817;28;20269;-70
2023/06/25 05:44:26;;;;;;;2.28;2.28;;;;;;;;;;6237130;28;20437;-69
2023/06/25 05:47:32;;;;;;;2.35;2.15;;;;;;;;;;6237417;28;20261;-69
2023/06/25 05:50:37;;;;;;;2.00;2.00;;;;;;;;;;6236725;28;20455;-70
2023/06/25 05:53:43;;;;;;;2.10;2.10;;;;;;;;;;6236774;28;20304;-69
2023/06/25 05:56:47;;;;;;;2.10;2.10;;;;;;;;;;6235615;28;20272;-70
2023/06/25 05:59:52;;;;;;;2.03;2.03;;;;;;;;;;6236558;28;20319;-70
2023/06/25 06:02:58;;;;;;;2.00;2.00;;;;;;;;;;6236036;28;20296;-70
2023/06/25 06:06:03;;;;;;;2.38;2.38;;;;;;;;;;6236491;28;20237;-69
2023/06/25 06:09:08;;;;;;;4.63;2.15;;;;;;;;;;6236033;28;20296;-69
2023/06/25 06:12:12;;;;;;;2.33;2.33;;;;;;;;;;6236602;28;20395;-70
2023/06/25 06:15:17;;;;;;;2.22;2.20;;;;;;;;;;6235824;28;20316;-69
2023/06/25 06:18:23;;;;;;;2.20;2.20;;;;;;;;;;6235965;28;20292;-70
2023/06/25 06:21:28;;;;;;;2.15;2.15;;;;;;;;;;6236770;28;20273;-69
2023/06/25 06:24:32;;;;;;;2.10;2.10;;;;;;;;;;6235642;28;20581;-70
2023/06/25 06:27:37;;;;;;;1.80;1.80;;;;;;;;;;6236231;28;20245;-70
2023/06/25 06:30:42;;;;;;;2.35;2.25;;;;;;;;;;6236555;28;20245;-69
2023/06/25 06:33:47;;;;;;;2.10;2.10;;;;;;;;;;6235575;28;20429;-70
2023/06/25 06:36:52;;;;;;;2.30;2.20;;;;;;;;;;6236175;28;20245;-69
2023/06/25 06:39:57;;;;;;;2.13;2.00;;;;;;;;;;6235443;28;20598;-69
2023/06/25 06:43:02;;;;;;;2.13;2.05;;;;;;;;;;6235336;28;20581;-70
2023/06/25 06:46:07;;;;;;;2.20;2.20;;;;;;;;;;6235861;28;20501;-69
2023/06/25 06:49:16;;;;;;;1.85;1.80;;;;;;;;;;6235143;28;20284;-69
2023/06/25 06:52:24;;;;;;;2.25;2.17;;;;;;;;;;6235447;28;20245;-69
2023/06/25 06:55:28;;;;;;;2.08;1.98;;;;;;;;;;6235621;28;20560;-70
2023/06/25 06:58:33;;;;;;;2.17;2.17;;;;;;;;;;6234719;28;20388;-69
2023/06/25 07:01:37;;;;;;;2.60;2.40;;;;;;;;;;6235666;28;20292;-69
2023/06/25 07:04:43;;;;;;;2.53;2.35;;;;;;;;;;6235087;28;20308;-70
2023/06/25 07:07:48;;;;;;;2.03;2.03;;;;;;;;;;6235007;28;20296;-69
2023/06/25 07:10:52;;;;;;;2.15;2.15;;;;;;;;;;6235512;28;20329;-70
2023/06/25 07:13:57;;;;;;;2.17;2.17;;;;;;;;;;6234547;28;20292;-69
2023/06/25 07:17:02;;;;;;;2.05;2.05;;;;;;;;;;6235721;28;20249;-69
2023/06/25 07:20:09;;;;;;;2.30;2.20;;;;;;;;;;6249876;28;20451;-70
2023/06/25 07:23:14;;;;;;;2.40;2.30;;;;;;;;;;6234962;28;20601;-70
2023/06/25 07:26:18;;;;;;;1.98;1.98;;;;;;;;;;6234882;28;20324;-70
2023/06/25 07:29:23;;;;;;;2.13;2.13;;;;;;;;;;6235110;28;20296;-69
2023/06/25 07:32:28;;;;;;;3.63;2.20;;;;;;;;;;6234457;28;20237;-70
2023/06/25 07:35:34;;;;;;;2.88;2.13;;;;;;;;;;6234001;28;20321;-70
2023/06/25 07:38:38;;;;;;;2.05;2.05;;;;;;;;;;6234104;28;20300;-69
2023/06/25 07:41:43;;;;;;;2.10;2.10;;;;;;;;;;6234168;28;20268;-70
2023/06/25 07:44:48;;;;;;;2.30;2.20;;;;;;;;;;6233937;28;20292;-69
2023/06/25 07:47:59;;;;;;;4.85;2.25;;;;;;;;;;6233928;28;20293;-70
2023/06/25 07:51:06;;;;;;;1.90;1.90;;;;;;;;;;6234618;28;20248;-70
2023/06/25 07:54:10;;;;;;;2.17;2.17;;;;;;;;;;6234337;28;20589;-70
2023/06/25 07:57:15;;;;;;;2.10;2.00;;;;;;;;;;6234736;28;20237;-70
2023/06/25 08:00:20;;;;;;;1.77;1.77;;;;;;;;;;6233842;28;20308;-70
2023/06/25 08:03:26;;;;;;;2.38;2.20;;;;;;;;;;6233968;28;20498;-69
2023/06/25 08:06:32;;;;;;;2.35;2.30;;;;;;;;;;6234572;28;20248;-70
2023/06/25 08:09:37;;;;;;;2.30;2.30;;;;;;;;;;6233878;28;20292;-69
2023/06/25 08:12:42;;;;;;;2.20;2.20;;;;;;;;;;6233828;28;20241;-70
2023/06/25 08:15:47;;;;;;;4.82;2.33;;;;;;;;;;6234275;28;20545;-69
2023/06/25 08:18:51;;;;;;;2.20;2.20;;;;;;;;;;6233982;28;20360;-69
2023/06/25 08:21:57;;;;;;;2.58;2.38;;;;;;;;;;6234100;28;20379;-70
2023/06/25 08:25:06;;;;;;;1.92;1.92;;;;;;;;;;6234270;28;20296;-70
2023/06/25 08:28:10;;;;;;;2.38;2.28;;;;;;;;;;6216278;28;20292;-69
2023/06/25 08:31:15;;;;;;;1.83;1.83;;;;;;;;;;6234153;28;20346;-69
2023/06/25 08:34:20;;;;;;;2.60;2.40;;;;;;;;;;6233916;28;20292;-70
2023/06/25 08:37:25;;;;;;;1.83;1.83;;;;;;;;;;6234481;28;20244;-70
2023/06/25 08:40:32;;;;;;;1.83;1.83;;;;;;;;;;6232438;28;20324;-69
2023/06/25 08:43:36;;;;;;;2.00;2.00;;;;;;;;;;6233969;28;20288;-69
2023/06/25 08:46:45;;;;;;;2.25;2.20;;;;;;;;;;6234851;28;20236;-69
2023/06/25 08:49:51;;;;;;;2.20;2.10;;;;;;;;;;6238165;28;20308;-70
2023/06/25 08:52:57;;;;;;;1.90;1.90;;;;;;;;;;6238100;28;20300;-69
2023/06/25 08:56:04;;;;;;;2.35;2.35;;;;;;;;;;6231145;28;20349;-70
2023/06/25 08:59:09;;;;;;;2.10;2.00;;;;;;;;;;6237969;28;20292;-69
2023/06/25 09:02:13;;;;;;;5.85;2.10;;;;;;;;;;6238178;28;20285;-69
2023/06/25 09:05:25;;;;;;;2.10;2.10;;;;;;;;;;6237725;28;20466;-69
2023/06/25 09:08:30;;;;;;;1.80;1.80;;;;;;;;;;6237828;28;20293;-70
2023/06/25 09:11:35;;;;;;;2.20;2.10;;;;;;;;;;6233640;28;20241;-70
2023/06/25 09:14:40;;;;;;;5.80;1.92;;;;;;;;;;6238098;28;20291;-70
2023/06/25 09:17:44;;;;;;;1.38;1.30;;;;;;;;;;6237682;28;20237;-70
2023/06/25 09:20:49;;;;;;;1.58;1.52;;;;;;;;;;6238272;28;20265;-71
2023/06/25 09:24:00;;;;;;;1.70;1.70;;;;;;;;;;6237615;28;20309;-70
2023/06/25 09:27:05;;;;;;;1.73;1.65;;;;;;;;;;6237814;28;20245;-70
2023/06/25 09:30:12;;;;;;;1.80;1.80;;;;;;;;;;6237519;28;20295;-70
2023/06/25 09:33:17;;;;;;;1.70;1.70;;;;;;;;;;6237584;28;20284;-70
2023/06/25 09:36:22;;;;;;;1.80;1.80;;;;;;;;;;6237487;28;20382;-71
2023/06/25 09:39:43;;;;;;;1.92;1.65;;;;;;;;;;6237129;28;20300;-70
2023/06/25 09:42:52;;;;;;;4.68;1.85;;;;;;;;;;6236853;28;20264;-70
2023/06/25 09:45:57;;;;;;;1.80;1.80;;;;;;;;;;6236939;28;20245;-70
2023/06/25 09:49:03;;;;;;;2.10;2.10;;;;;;;;;;6237210;28;20312;-71
2023/06/25 09:52:09;;;;;;;2.13;2.13;;;;;;;;;;6237551;28;20253;-69
2023/06/25 09:55:16;;;;;;;4.60;1.90;;;;;;;;;;6237359;28;20319;-69
2023/06/25 09:58:21;;;;;;;1.80;1.70;;;;;;;;;;6236841;28;20300;-70
2023/06/25 10:01:26;;;;;;;1.90;1.90;;;;;;;;;;6234947;28;20311;-70
2023/06/25 10:04:32;;;;;;;1.45;1.45;;;;;;;;;;6236103;28;20558;-69
2023/06/25 10:07:37;;;;;;;1.90;1.83;;;;;;;;;;6236333;28;20451;-69
2023/06/25 10:10:43;;;;;;;1.85;1.75;;;;;;;;;;6232584;28;20241;-70
2023/06/25 10:13:48;;;;;;;2.40;1.90;;;;;;;;;;6236098;28;20300;-69
2023/06/25 10:16:54;;;;;;;2.15;1.63;;;;;;;;;;6236450;28;20241;-69
2023/06/25 10:20:00;;;;;;;1.52;1.52;;;;;;;;;;6236449;28;20300;-70
2023/06/25 10:23:09;;;;;;;1.60;1.60;;;;;;;;;;6236026;28;20518;-70
2023/06/25 10:26:15;;;;;;;1.52;1.50;;;;;;;;;;6235952;28;20446;-70
2023/06/25 10:29:20;;;;;;;1.77;1.70;;;;;;;;;;6235810;28;20529;-70
2023/06/25 10:32:25;;;;;;;1.73;1.73;;;;;;;;;;6235771;28;20287;-69
2023/06/25 10:35:39;;;;;;;1.63;1.63;;;;;;;;;;6235936;28;20305;-70
2023/06/25 10:38:44;;;;;;;1.52;1.52;;;;;;;;;;6233657;28;20300;-70
2023/06/25 10:41:50;;;;;;;1.90;1.90;;;;;;;;;;6235346;28;20272;-70
2023/06/25 10:44:54;;;;;;;3.15;1.73;;;;;;;;;;6235137;28;20580;-70
2023/06/25 10:48:04;;;;;;;1.80;1.80;;;;;;;;;;6235075;28;20292;-69
2023/06/25 10:51:09;;;;;;;1.88;1.52;;;;;;;;;;6235871;28;20516;-70
2023/06/25 10:54:15;;;;;;;1.80;1.80;;;;;;;;;;6234902;28;20297;-70
2023/06/25 10:57:21;;;;;;;1.90;1.80;;;;;;;;;;6235411;28;20252;-70
2023/06/25 11:00:28;;;;;;;1.67;1.67;;;;;;;;;;6235021;28;20300;-69
2023/06/25 11:03:37;;;;;;;1.90;1.80;;;;;;;;;;6234251;28;20359;-70
2023/06/25 11:06:42;;;;;;;2.10;2.10;;;;;;;;;;6234935;28;20249;-69
2023/06/25 11:09:50;;;;;;;1.80;1.80;;;;;;;;;;6231650;28;20296;-69
2023/06/25 11:12:56;;;;;;;2.00;1.90;;;;;;;;;;6233336;28;20546;-70
2023/06/25 11:16:01;;;;;;;2.05;1.80;;;;;;;;;;6235304;28;20241;-70
2023/06/25 11:19:06;;;;;;;1.73;1.70;;;;;;;;;;6233165;28;20415;-70
2023/06/25 11:22:11;;;;;;;2.10;1.90;;;;;;;;;;6235037;28;20400;-70
2023/06/25 11:25:15;;;;;;;1.98;1.98;;;;;;;;;;6234946;28;20305;-69
2023/06/25 11:28:21;;;;;;;1.88;1.80;;;;;;;;;;6234620;28;20296;-69
2023/06/25 11:31:26;;;;;;;1.95;1.90;;;;;;;;;;6234698;28;20269;-69
2023/06/25 11:34:31;;;;;;;1.98;1.98;;;;;;;;;;6234996;28;20437;-69
2023/06/25 11:37:44;;;;;;;1.70;1.60;;;;;;;;;;6234484;28;20256;-69
2023/06/25 11:41:07;;;;;;;2.08;2.08;;;;;;;;;;6243131;28;20244;-69
2023/06/25 11:44:21;;;;;;;2.00;1.90;;;;;;;;;;6234637;28;20299;-70
2023/06/25 11:47:26;;;;;;;2.50;2.33;;;;;;;;;;6234504;28;20245;-71
2023/06/25 11:50:30;;;;;;;1.85;1.80;;;;;;;;;;6233620;28;20296;-70
2023/06/25 11:53:35;;;;;;;1.92;1.83;;;;;;;;;;6234646;28;20592;-69
2023/06/25 11:56:40;;;;;;;1.77;1.70;;;;;;;;;;6235277;28;20561;-70
2023/06/25 11:59:46;;;;;;;1.98;1.98;;;;;;;;;;6234066;28;20292;-70
2023/06/25 12:02:50;;;;;;;1.90;1.90;;;;;;;;;;6233726;28;20344;-71
2023/06/25 12:05:55;;;;;;;3.00;2.50;;;;;;;;;;6234175;28;20285;-70
2023/06/25 12:09:03;;;;;;;2.08;2.08;;;;;;;;;;6233986;28;20308;-69
2023/06/25 12:12:08;;;;;;;2.03;2.03;;;;;;;;;;6230080;28;20517;-70
2023/06/25 12:15:14;;;;;;;1.83;1.83;;;;;;;;;;6233860;28;20300;-69
2023/06/25 12:18:18;;;;;;;2.35;2.00;;;;;;;;;;6233428;28;20299;-69
2023/06/25 12:21:23;;;;;;;2.13;2.08;;;;;;;;;;6233702;28;20249;-69
2023/06/25 12:24:27;;;;;;;2.10;2.10;;;;;;;;;;6237765;28;20468;-70
2023/06/25 12:27:32;;;;;;;1.95;1.95;;;;;;;;;;6239182;28;20494;-69
2023/06/25 12:30:38;;;;;;;1.80;1.80;;;;;;;;;;6238361;28;20268;-69
2023/06/25 12:33:43;;;;;;;2.10;2.00;;;;;;;;;;6238551;28;20319;-70
2023/06/25 12:36:48;;;;;;;2.20;2.10;;;;;;;;;;6237437;28;20268;-69
2023/06/25 12:39:52;;;;;;;2.08;1.88;;;;;;;;;;6238412;28;20299;-71
2023/06/25 12:42:57;;;;;;;2.00;1.90;;;;;;;;;;6252843;28;20478;-70
2023/06/25 12:46:04;;;;;;;2.08;2.08;;;;;;;;;;6238340;28;20245;-70
2023/06/25 12:49:09;;;;;;;2.90;2.20;;;;;;;;;;6238405;28;20316;-70
2023/06/25 12:52:13;;;;;;;2.80;2.60;;;;;;;;;;6238463;28;20380;-70
2023/06/25 12:55:18;;;;;;;1.83;1.83;;;;;;;;;;6238354;28;20299;-71
2023/06/25 12:58:23;;;;;;;2.08;1.98;;;;;;;;;;6238478;28;20288;-71
2023/06/25 13:01:28;;;;;;;2.25;1.90;;;;;;;;;;6236500;28;20272;-71
2023/06/25 13:04:33;;;;;;;2.40;2.40;;;;;;;;;;6238046;28;20316;-70
2023/06/25 13:07:38;;;;;;;2.22;2.22;;;;;;;;;;6237327;28;20248;-72
2023/06/25 13:10:44;;;;;;;2.28;2.20;;;;;;;;;;6233675;28;20265;-69
2023/06/25 13:13:48;;;;;;;2.05;2.05;;;;;;;;;;6237328;28;20320;-70
2023/06/25 13:16:54;;;;;;;2.10;2.00;;;;;;;;;;6237921;28;20315;-69
2023/06/25 13:19:59;;;;;;;5.15;2.30;;;;;;;;;;6237152;28;20301;-70
2023/06/25 13:23:04;;;;;;;4.45;2.00;;;;;;;;;;6237383;28;20284;-69
2023/06/25 13:26:08;;;;;;;3.13;2.40;;;;;;;;;;6238008;28;20237;-70
2023/06/25 13:29:13;;;;;;;2.40;2.20;;;;;;;;;;6237948;28;20304;-69
2023/06/25 13:32:19;;;;;;;1.90;1.90;;;;;;;;;;6237620;28;20245;-70
2023/06/25 13:35:23;;;;;;;2.15;2.00;;;;;;;;;;6236546;28;20301;-69
2023/06/25 13:38:28;;;;;;;2.53;2.00;;;;;;;;;;6237492;28;20468;-71
2023/06/25 13:41:32;;;;;;;2.30;2.30;;;;;;;;;;6237595;28;20245;-70
2023/06/25 13:44:37;;;;;;;2.60;2.15;;;;;;;;;;6236790;28;20509;-70
2023/06/25 13:47:43;;;;;;;2.40;2.30;;;;;;;;;;6236788;28;20242;-70
2023/06/25 13:50:48;;;;;;;2.25;2.17;;;;;;;;;;6237337;28;20242;-70
2023/06/25 13:53:53;;;;;;;4.15;2.25;;;;;;;;;;6236831;28;20588;-69
2023/06/25 13:56:57;;;;;;;2.03;2.03;;;;;;;;;;6237123;28;20241;-70
2023/06/25 14:00:02;;;;;;;2.33;2.05;;;;;;;;;;6236703;28;20295;-69
2023/06/25 14:03:10;;;;;;;2.22;2.13;;;;;;;;;;6238629;28;20300;-70
2023/06/25 14:06:17;;;;;;;2.40;2.28;;;;;;;;;;6237234;28;20564;-70
2023/06/25 14:09:21;;;;;;;2.67;2.33;;;;;;;;;;6236426;28;20292;-70
2023/06/25 14:12:26;;;;;;;2.17;2.17;;;;;;;;;;6232774;28;20330;-73
2023/06/25 14:15:31;;;;;;;2.35;2.35;;;;;;;;;;6251333;28;20305;-69
2023/06/25 14:18:37;;;;;;;2.10;1.92;;;;;;;;;;6236278;28;20376;-70
2023/06/25 14:21:41;;;;;;;2.28;2.28;;;;;;;;;;6236965;28;20404;-71
2023/06/25 14:24:46;;;;;;;2.58;2.47;;;;;;;;;;6236028;28;20296;-69
2023/06/25 14:27:51;;;;;;;2.60;2.50;;;;;;;;;;6234673;28;20268;-70
2023/06/25 14:30:56;;;;;;;2.72;2.47;;;;;;;;;;6236022;28;20254;-70
2023/06/25 14:34:04;;;;;;;2.10;2.10;;;;;;;;;;6235867;28;20312;-69
2023/06/25 14:37:09;;;;;;;2.53;2.53;;;;;;;;;;6236356;28;20266;-69
2023/06/25 14:40:13;;;;;;;2.03;2.03;;;;;;;;;;6235728;28;20455;-70
2023/06/25 14:43:18;;;;;;;2.70;2.50;;;;;;;;;;6235396;28;20327;-69
2023/06/25 14:46:22;;;;;;;2.40;2.30;;;;;;;;;;6235753;28;20265;-69
2023/06/25 14:49:28;;;;;;;2.53;2.42;;;;;;;;;;6235828;28;20572;-70
2023/06/25 14:52:33;;;;;;;2.00;2.00;;;;;;;;;;6235552;28;20351;-71
2023/06/25 14:55:37;;;;;;;2.60;2.35;;;;;;;;;;6236210;28;20257;-69
2023/06/25 14:58:45;;;;;;;2.13;2.03;;;;;;;;;;6235311;28;20352;-69
2023/06/25 15:01:49;;;;;;;2.35;2.22;;;;;;;;;;6235334;28;20456;-69
2023/06/25 15:04:55;;;;;;;2.28;2.25;;;;;;;;;;6234450;28;20523;-70
2023/06/25 15:08:00;;;;;;;2.28;2.28;;;;;;;;;;6235416;28;20308;-69
2023/06/25 15:11:04;;;;;;;2.53;2.53;;;;;;;;;;6231185;28;20286;-70
2023/06/25 15:14:09;;;;;;;2.50;2.50;;;;;;;;;;6235263;28;20616;-69
2023/06/25 15:17:13;;;;;;;2.30;2.30;;;;;;;;;;6235484;28;20257;-70
2023/06/25 15:20:19;;;;;;;2.10;2.10;;;;;;;;;;6234446;28;20317;-70
2023/06/25 15:23:25;;;;;;;2.20;2.20;;;;;;;;;;6234649;28;20300;-71
2023/06/25 15:26:31;;;;;;;2.63;2.42;;;;;;;;;;6235137;28;20265;-69
2023/06/25 15:29:37;;;;;;;2.20;2.20;;;;;;;;;;6234762;28;20608;-70
2023/06/25 15:32:41;;;;;;;2.72;2.63;;;;;;;;;;6234556;28;20261;-70
2023/06/25 15:35:48;;;;;;;2.33;2.30;;;;;;;;;;6235220;28;20357;-70
2023/06/25 15:38:52;;;;;;;2.70;2.60;;;;;;;;;;6234878;28;20296;-70
2023/06/25 15:42:15;;;;;;;3.03;2.92;;;;;;;;;;6234580;28;20421;-70
2023/06/25 15:45:19;;;;;;;2.50;2.40;;;;;;;;;;6233035;28;20305;-70
2023/06/25 15:48:24;;;;;;;2.45;2.45;;;;;;;;;;6234583;28;20300;-70
2023/06/25 15:51:31;;;;;;;2.63;2.63;;;;;;;;;;6234828;28;20498;-72
2023/06/25 15:54:35;;;;;;;2.30;2.20;;;;;;;;;;6234523;28;20580;-70
2023/06/25 15:57:40;;;;;;;4.32;2.38;;;;;;;;;;6234508;28;20241;-70
2023/06/25 16:00:46;;;;;;;5.70;2.25;;;;;;;;;;6235131;28;20237;-70
2023/06/25 16:03:51;;;;;;;2.75;2.55;;;;;;;;;;6234742;28;20312;-70
2023/06/25 16:06:57;;;;;;;3.50;2.40;;;;;;;;;;6234498;28;20521;-69
2023/06/25 16:10:02;;;;;;;3.63;3.35;;;;;;;;;;6229672;28;20500;-69
2023/06/25 16:13:06;;;;;;;3.70;3.60;;;;;;;;;;6234366;28;20541;-71
2023/06/25 16:16:11;;;;;;;3.35;3.25;;;;;;;;;;6234422;28;20277;-70
2023/06/25 16:19:16;;;;;;;3.35;2.80;;;;;;;;;;6234614;28;20296;-69
2023/06/25 16:22:24;;;;;;;2.50;2.50;;;;;;;;;;6234730;28;20248;-70
2023/06/25 16:25:29;;;;;;;2.58;2.58;;;;;;;;;;6234030;28;20588;-72
2023/06/25 16:28:37;;;;;;;3.00;2.90;;;;;;;;;;6234357;28;20289;-69
2023/06/25 16:31:42;;;;;;;2.80;2.70;;;;;;;;;;6234696;28;20237;-70
2023/06/25 16:34:47;;;;;;;2.40;2.38;;;;;;;;;;6234220;28;20324;-69
2023/06/25 16:37:52;;;;;;;2.78;2.58;;;;;;;;;;6233856;28;20416;-70
2023/06/25 16:40:57;;;;;;;2.38;2.30;;;;;;;;;;6233986;28;20240;-70
2023/06/25 16:44:02;;;;;;;3.10;2.80;;;;;;;;;;6233801;28;20292;-68
2023/06/25 16:47:07;;;;;;;3.03;2.83;;;;;;;;;;6234620;28;20356;-69
2023/06/25 16:50:11;;;;;;;2.20;2.20;;;;;;;;;;6233719;28;20296;-71
2023/06/25 16:53:17;;;;;;;4.38;2.75;;;;;;;;;;6233855;28;20293;-69
2023/06/25 16:56:22;;;;;;;2.38;2.35;;;;;;;;;;6234566;28;20245;-70
2023/06/25 16:59:27;;;;;;;2.75;2.75;;;;;;;;;;6233919;28;20300;-69
2023/06/25 17:02:32;;;;;;;2.30;2.30;;;;;;;;;;6234299;28;20528;-69
2023/06/25 17:05:36;;;;;;;2.90;2.70;;;;;;;;;;6233499;28;20304;-69
2023/06/25 17:08:43;;;;;;;3.38;3.28;;;;;;;;;;6233651;28;20292;-70
2023/06/25 17:11:47;;;;;;;2.45;2.35;;;;;;;;;;6233488;28;20245;-70
2023/06/25 17:14:52;;;;;;;2.90;2.70;;;;;;;;;;6238089;28;20316;-70
2023/06/25 17:17:56;;;;;;;2.47;2.45;;;;;;;;;;6238154;28;20287;-70
2023/06/25 17:21:01;;;;;;;2.53;2.42;;;;;;;;;;6237938;28;20424;-71
2023/06/25 17:24:08;;;;;;;7.63;6.85;;;;;;;;;;6237864;28;20292;-70
2023/06/25 17:27:12;;;;;;;2.95;2.85;;;;;;;;;;6238023;28;20284;-70
2023/06/25 17:30:17;;;;;;;2.70;2.60;;;;;;;;;;6238032;28;20296;-69
2023/06/25 17:33:21;;;;;;;2.85;2.75;;;;;;;;;;6237746;28;20291;-71
2023/06/25 17:36:26;;;;;;;2.75;2.65;;;;;;;;;;6238115;28;20245;-71
2023/06/25 17:39:33;;;;;;;2.83;2.83;;;;;;;;;;6237907;28;20300;-69
2023/06/25 17:42:37;;;;;;;6.40;2.85;;;;;;;;;;6237459;28;20253;-70
2023/06/25 17:45:42;;;;;;;2.65;2.55;;;;;;;;;;6238343;28;20229;-71
2023/06/25 17:48:47;;;;;;;3.78;2.80;;;;;;;;;;6237123;28;20300;-70
2023/06/25 17:51:52;;;;;;;3.20;3.00;;;;;;;;;;6237847;28;20246;-71
2023/06/25 17:54:58;;;;;;;2.70;2.60;;;;;;;;;;6237147;28;20301;-70
2023/06/25 17:58:03;;;;;;;2.92;2.90;;;;;;;;;;6236955;28;20476;-70
2023/06/25 18:01:07;;;;;;;4.15;2.80;;;;;;;;;;6237347;28;20238;-70
2023/06/25 18:04:12;;;;;;;3.40;3.30;;;;;;;;;;6236627;28;20308;-70
2023/06/25 18:07:16;;;;;;;3.05;2.88;;;;;;;;;;6237088;28;20479;-70
2023/06/25 18:10:24;;;;;;;6.47;6.03;;;;;;;;;;6232806;28;20292;-69
2023/06/25 18:13:28;;;;;;;3.83;3.40;;;;;;;;;;6235503;28;20458;-69
2023/06/25 18:16:33;;;;;;;3.33;3.22;;;;;;;;;;6236029;28;20348;-70
2023/06/25 18:19:37;;;;;;;5.50;2.78;;;;;;;;;;6236953;28;20294;-70
2023/06/25 18:22:44;;;;;;;2.92;2.72;;;;;;;;;;6234958;28;20443;-71
2023/06/25 18:25:50;;;;;;;6.95;3.05;;;;;;;;;;6235300;28;20272;-70
2023/06/25 18:28:54;;;;;;;3.58;3.47;;;;;;;;;;6236534;28;20296;-71
2023/06/25 18:31:59;;;;;;;2.95;2.85;;;;;;;;;;6236812;28;20244;-70